createdAt,value
2023-04-10T00:02:23.346Z,27.38
2023-04-10T00:05:10.973Z,30.77
2023-04-10T00:07:58.005Z,25.83
2023-04-10T00:10:45.050Z,25.88
2023-04-10T00:13:32.731Z,25.90
2023-04-10T00:16:20.159Z,27.48
2023-04-10T00:19:08.234Z,27.30
2023-04-10T00:21:57.819Z,32.42
2023-04-10T00:24:44.865Z,30.77
2023-04-10T00:27:31.961Z,31.88
2023-04-10T00:30:19.270Z,36.25
2023-04-10T00:33:06.601Z,33.08
2023-04-10T00:35:53.638Z,31.58
2023-04-10T00:38:40.781Z,29.20
2023-04-10T00:41:29.645Z,32.60
2023-04-10T00:44:17.151Z,30.65
2023-04-10T00:47:05.624Z,30.25
2023-04-10T00:49:53.570Z,29.60
2023-04-10T00:52:41.084Z,30.90
2023-04-10T00:55:28.249Z,32.13
2023-04-10T00:58:15.487Z,31.77
2023-04-10T01:01:04.143Z,35.05
2023-04-10T01:03:52.841Z,31.73
2023-04-10T01:06:58.220Z,36.53
2023-04-10T01:09:54.399Z,37.67
2023-04-10T01:13:05.971Z,36.97
2023-04-10T01:16:01.766Z,35.50
2023-04-10T01:19:07.358Z,31.90
2023-04-10T01:21:56.207Z,39.38
2023-04-10T01:25:09.409Z,33.30
2023-04-10T01:28:25.971Z,37.35
2023-04-10T01:31:18.667Z,36.53
2023-04-10T01:34:10.603Z,39.50
2023-04-10T01:37:04.086Z,38.75
2023-04-10T01:39:59.181Z,38.33
2023-04-10T01:42:53.299Z,36.88
2023-04-10T01:45:43.798Z,38.15
2023-04-10T01:48:31.343Z,36.97
2023-04-10T01:51:18.877Z,37.45
2023-04-10T01:54:07.218Z,34.85
2023-04-10T01:56:54.817Z,39.08
2023-04-10T01:59:42.571Z,36.45
2023-04-10T02:02:34.051Z,35.83
2023-04-10T02:05:22.389Z,36.08
2023-04-10T02:08:15.844Z,37.58
2023-04-10T02:11:23.596Z,37.63
2023-04-10T02:14:12.284Z,39.22
2023-04-10T02:17:01.533Z,36.45
2023-04-10T02:19:50.408Z,38.87
2023-04-10T02:22:37.569Z,35.63
2023-04-10T02:25:24.705Z,33.45
2023-04-10T02:28:11.820Z,38.15
2023-04-10T02:30:58.900Z,33.65
2023-04-10T02:33:46.000Z,36.58
2023-04-10T02:36:34.129Z,35.97
2023-04-10T02:39:21.284Z,37.90
2023-04-10T02:42:08.487Z,38.95
2023-04-10T02:44:56.210Z,33.55
2023-04-10T02:47:43.299Z,39.40
2023-04-10T02:50:32.477Z,34.15
2023-04-10T02:53:20.100Z,35.60
2023-04-10T02:56:08.289Z,40.03
2023-04-10T02:58:56.242Z,33.65
2023-04-10T03:01:43.486Z,33.40
2023-04-10T03:04:32.623Z,40.97
2023-04-10T03:07:19.745Z,38.85
2023-04-10T03:10:07.357Z,35.22
2023-04-10T03:12:54.354Z,39.00
2023-04-10T03:15:41.519Z,37.30
2023-04-10T03:18:28.645Z,37.28
2023-04-10T03:21:16.065Z,34.95
2023-04-10T03:24:03.164Z,46.13
2023-04-10T03:26:50.660Z,39.28
2023-04-10T03:29:37.696Z,41.22
2023-04-10T03:32:24.844Z,34.38
2023-04-10T03:35:12.130Z,36.03
2023-04-10T03:37:59.205Z,37.70
2023-04-10T03:40:46.322Z,32.67
2023-04-10T03:43:33.463Z,40.00
2023-04-10T03:46:20.660Z,35.10
2023-04-10T03:49:07.756Z,36.72
2023-04-10T03:51:54.987Z,42.25
2023-04-10T03:54:42.705Z,35.22
2023-04-10T03:57:29.775Z,36.47
2023-04-10T04:00:17.255Z,33.53
2023-04-10T04:03:05.338Z,34.72
2023-04-10T04:05:52.606Z,36.55
2023-04-10T04:08:39.714Z,33.28
2023-04-10T04:11:27.863Z,35.42
2023-04-10T04:14:14.944Z,40.47
2023-04-10T04:17:02.093Z,39.70
2023-04-10T04:19:49.239Z,39.15
2023-04-10T04:22:36.293Z,38.28
2023-04-10T04:25:24.238Z,31.95
2023-04-10T04:28:13.779Z,34.67
2023-04-10T04:31:01.858Z,32.50
2023-04-10T04:33:48.962Z,38.33
2023-04-10T04:36:36.149Z,38.78
2023-04-10T04:39:23.492Z,39.25
2023-04-10T04:42:10.617Z,33.45
2023-04-10T04:44:57.607Z,34.47
2023-04-10T04:47:44.692Z,33.88
2023-04-10T04:50:31.718Z,44.90
2023-04-10T04:53:18.749Z,40.95
2023-04-10T04:56:06.228Z,36.17
2023-04-10T04:58:53.543Z,40.65
2023-04-10T05:01:40.914Z,32.90
2023-04-10T05:04:28.105Z,36.83
2023-04-10T05:07:15.778Z,32.10
2023-04-10T05:10:02.896Z,33.03
2023-04-10T05:12:49.898Z,34.55
2023-04-10T05:15:36.997Z,30.30
2023-04-10T05:18:24.235Z,31.48
2023-04-10T05:21:11.391Z,31.77
2023-04-10T05:23:58.552Z,34.15
2023-04-10T05:26:45.877Z,30.00
2023-04-10T05:29:33.004Z,32.03
2023-04-10T05:32:20.106Z,35.85
2023-04-10T05:35:07.829Z,32.45
2023-04-10T05:37:54.878Z,30.75
2023-04-10T05:40:45.984Z,26.92
2023-04-10T05:43:33.084Z,24.52
2023-04-10T05:46:20.172Z,26.45
2023-04-10T05:49:08.364Z,26.80
2023-04-10T05:51:55.403Z,25.98
2023-04-10T05:54:42.490Z,28.33
2023-04-10T05:57:30.571Z,24.33
2023-04-10T06:00:18.719Z,22.92
2023-04-10T06:03:05.822Z,23.67
2023-04-10T06:05:53.869Z,24.02
2023-04-10T06:08:41.058Z,21.48
2023-04-10T06:11:28.185Z,24.52
2023-04-10T06:14:15.233Z,24.05
2023-04-10T06:17:02.366Z,22.95
2023-04-10T06:19:49.408Z,21.55
2023-04-10T06:22:36.465Z,21.60
2023-04-10T06:25:23.464Z,24.30
2023-04-10T06:28:10.549Z,25.23
2023-04-10T06:30:57.742Z,23.52
2023-04-10T06:33:44.866Z,23.60
2023-04-10T06:36:31.908Z,22.77
2023-04-10T06:39:19.622Z,27.80
2023-04-10T06:42:06.765Z,23.70
2023-04-10T06:44:53.873Z,23.42
2023-04-10T06:47:40.913Z,25.40
2023-04-10T06:50:28.132Z,24.45
2023-04-10T06:53:15.480Z,25.05
2023-04-10T06:56:03.693Z,22.63
2023-04-10T06:58:51.083Z,23.45
2023-04-10T07:01:38.387Z,19.17
2023-04-10T07:04:25.513Z,23.65
2023-04-10T07:07:13.532Z,24.67
2023-04-10T07:10:00.690Z,25.33
2023-04-10T07:12:48.803Z,24.65
2023-04-10T07:15:36.389Z,23.67
2023-04-10T07:18:23.574Z,22.35
2023-04-10T07:21:14.521Z,25.27
2023-04-10T07:24:02.009Z,24.45
2023-04-10T07:26:49.143Z,23.15
2023-04-10T07:29:36.444Z,22.30
2023-04-10T07:32:24.213Z,24.70
2023-04-10T07:35:11.508Z,22.33
2023-04-10T07:37:58.537Z,19.42
2023-04-10T07:40:45.737Z,19.42
2023-04-10T07:43:32.774Z,20.15
2023-04-10T07:46:21.064Z,18.52
2023-04-10T07:49:08.813Z,21.00
2023-04-10T07:51:56.125Z,19.52
2023-04-10T07:54:43.194Z,18.02
2023-04-10T07:57:32.424Z,18.60
2023-04-10T08:00:19.686Z,17.98
2023-04-10T08:03:07.494Z,18.30
2023-04-10T08:05:54.952Z,18.45
2023-04-10T08:08:43.102Z,17.88
2023-04-10T08:11:32.098Z,18.40
2023-04-10T08:14:19.141Z,19.55
2023-04-10T08:17:06.352Z,18.17
2023-04-10T08:19:53.432Z,18.13
2023-04-10T08:22:40.612Z,19.58
2023-04-10T08:25:27.687Z,18.67
2023-04-10T08:28:14.709Z,20.08
2023-04-10T08:35:57.421Z,19.63
2023-04-10T08:38:45.589Z,20.33
2023-04-10T08:41:33.078Z,21.45
2023-04-10T08:44:20.146Z,22.00
2023-04-10T08:47:08.736Z,18.95
2023-04-10T08:50:03.353Z,20.67
2023-04-10T08:52:53.099Z,19.73
2023-04-10T08:55:41.506Z,19.05
2023-04-10T08:58:28.774Z,21.50
2023-04-10T09:01:16.288Z,17.80
2023-04-10T09:04:03.553Z,18.75
2023-04-10T09:06:50.831Z,20.02
2023-04-10T09:09:38.193Z,19.25
2023-04-10T09:12:26.159Z,16.52
2023-04-10T09:15:14.238Z,18.90
2023-04-10T09:18:03.828Z,19.48
2023-04-10T09:20:51.823Z,19.75
2023-04-10T09:23:38.946Z,16.60
2023-04-10T09:26:28.763Z,18.15
2023-04-10T09:29:17.158Z,16.67
2023-04-10T09:32:04.421Z,15.85
2023-04-10T09:34:57.374Z,16.20
2023-04-10T09:37:46.012Z,14.65
2023-04-10T09:40:33.181Z,14.98
2023-04-10T09:43:25.872Z,14.50
2023-04-10T09:46:29.323Z,13.40
2023-04-10T09:49:16.475Z,12.52
2023-04-10T09:52:18.637Z,11.35
2023-04-10T09:55:08.879Z,12.43
2023-04-10T09:57:57.816Z,10.77
2023-04-10T10:00:47.133Z,9.63
2023-04-10T10:03:34.280Z,13.80
2023-04-10T10:06:22.230Z,10.80
2023-04-10T10:09:09.593Z,10.82
2023-04-10T10:11:58.191Z,12.13
2023-04-10T10:14:52.724Z,11.00
2023-04-10T10:17:46.814Z,11.18
2023-04-10T10:20:37.011Z,10.60
2023-04-10T10:23:26.184Z,11.30
2023-04-10T10:26:14.566Z,12.02
2023-04-10T10:29:09.090Z,12.13
2023-04-10T10:31:56.808Z,11.25
2023-04-10T10:34:44.893Z,11.95
2023-04-10T10:37:32.479Z,12.40
2023-04-10T10:40:38.827Z,11.25
2023-04-10T10:43:38.144Z,11.68
2023-04-10T10:46:51.361Z,11.40
2023-04-10T10:49:59.278Z,10.95
2023-04-10T10:52:53.061Z,12.95
2023-04-10T10:55:40.227Z,11.05
2023-04-10T10:58:48.520Z,10.88
2023-04-10T11:01:35.978Z,10.80
2023-04-10T11:04:48.813Z,10.55
2023-04-10T11:08:00.785Z,9.70
2023-04-10T11:11:05.909Z,10.95
2023-04-10T11:13:53.065Z,11.05
2023-04-10T11:16:46.926Z,9.90
2023-04-10T11:20:00.233Z,9.93
2023-04-10T11:23:13.278Z,9.45
2023-04-10T11:26:02.112Z,10.18
2023-04-10T11:28:49.165Z,13.10
2023-04-10T11:31:36.424Z,11.25
2023-04-10T11:34:23.971Z,9.88
2023-04-10T11:37:11.119Z,8.80
2023-04-10T11:40:07.812Z,9.18
2023-04-10T11:43:12.604Z,8.63
2023-04-10T11:46:08.071Z,9.65
2023-04-10T11:49:03.475Z,8.48
2023-04-10T11:51:51.804Z,8.98
2023-04-10T11:54:48.721Z,9.77
2023-04-10T11:57:36.383Z,8.30
2023-04-10T12:00:24.481Z,10.95
2023-04-10T12:03:11.714Z,8.50
2023-04-10T12:05:59.293Z,8.60
2023-04-10T12:08:49.493Z,7.43
2023-04-10T12:11:36.845Z,9.20
2023-04-10T12:14:29.287Z,8.75
2023-04-10T12:17:17.164Z,8.57
2023-04-10T12:20:06.482Z,8.45
2023-04-10T12:22:56.823Z,10.68
2023-04-10T12:25:44.142Z,8.50
2023-04-10T12:28:31.769Z,9.57
2023-04-10T12:31:19.152Z,9.82
2023-04-10T12:34:08.035Z,9.52
2023-04-10T12:36:58.267Z,9.68
2023-04-10T12:39:45.291Z,8.57
2023-04-10T12:42:40.401Z,8.63
2023-04-10T12:45:45.907Z,9.50
2023-04-10T12:48:33.374Z,9.48
2023-04-10T12:51:20.512Z,8.30
2023-04-10T12:54:07.594Z,8.75
2023-04-10T12:56:54.811Z,8.95
2023-04-10T12:59:42.538Z,9.68
2023-04-10T13:02:29.743Z,8.52
2023-04-10T13:05:17.117Z,8.23
2023-04-10T13:08:04.302Z,9.18
2023-04-10T13:10:51.440Z,10.88
2023-04-10T13:13:38.432Z,9.85
2023-04-10T13:16:25.760Z,8.60
2023-04-10T13:19:13.135Z,9.55
2023-04-10T13:22:01.450Z,7.93
2023-04-10T13:24:48.546Z,7.85
2023-04-10T13:27:35.673Z,7.65
2023-04-10T13:30:22.716Z,8.80
2023-04-10T13:33:10.863Z,8.43
2023-04-10T13:35:58.047Z,8.70
2023-04-10T13:38:45.398Z,7.85
2023-04-10T13:41:32.657Z,8.23
2023-04-10T13:44:19.818Z,7.80
2023-04-10T13:47:07.029Z,8.65
2023-04-10T13:49:54.127Z,7.38
2023-04-10T13:52:41.168Z,7.45
2023-04-10T13:55:28.274Z,7.93
2023-04-10T13:58:16.406Z,7.65
2023-04-10T14:01:03.610Z,6.75
2023-04-10T14:03:51.289Z,7.65
2023-04-10T14:06:38.438Z,6.32
2023-04-10T14:09:25.581Z,5.60
2023-04-10T14:12:13.193Z,6.30
2023-04-10T14:15:00.258Z,5.75
2023-04-10T14:17:47.423Z,6.03
2023-04-10T14:20:34.578Z,5.55
2023-04-10T14:23:22.544Z,7.25
2023-04-10T14:26:09.666Z,7.63
2023-04-10T14:28:56.974Z,5.40
2023-04-10T14:31:54.641Z,6.45
2023-04-10T14:34:44.559Z,5.97
2023-04-10T14:37:32.558Z,5.85
2023-04-10T14:40:19.640Z,7.20
2023-04-10T14:43:07.325Z,6.40
2023-04-10T14:45:54.409Z,6.18
2023-04-10T14:48:41.637Z,6.00
2023-04-10T14:51:28.983Z,6.35
2023-04-10T14:54:17.130Z,5.70
2023-04-10T14:57:04.732Z,5.22
2023-04-10T14:59:51.769Z,5.93
2023-04-10T15:02:39.178Z,5.55
2023-04-10T15:05:27.444Z,5.55
2023-04-10T15:08:14.513Z,7.00
2023-04-10T15:11:02.121Z,5.65
2023-04-10T15:13:49.249Z,6.93
2023-04-10T15:16:36.307Z,6.25
2023-04-10T15:19:23.494Z,6.43
2023-04-10T15:22:10.629Z,8.45
2023-04-10T15:24:57.822Z,7.22
2023-04-10T15:27:44.932Z,7.03
2023-04-10T15:30:32.125Z,7.97
2023-04-10T15:33:19.468Z,8.90
2023-04-10T15:36:08.129Z,10.43
2023-04-10T15:38:55.246Z,10.05
2023-04-10T15:41:42.473Z,9.02
2023-04-10T15:44:29.581Z,9.48
2023-04-10T15:47:16.690Z,9.25
2023-04-10T15:50:04.818Z,8.20
2023-04-10T15:52:52.102Z,10.82
2023-04-10T15:55:40.493Z,10.60
2023-04-10T15:58:27.658Z,11.88
2023-04-10T16:01:14.799Z,11.20
2023-04-10T16:04:01.997Z,10.57
2023-04-10T16:06:49.166Z,11.40
2023-04-10T16:09:36.282Z,15.70
2023-04-10T16:12:23.386Z,10.63
2023-04-10T16:15:10.594Z,10.52
2023-04-10T16:17:58.475Z,10.32
2023-04-10T16:20:45.706Z,9.98
2023-04-10T16:23:32.717Z,10.75
2023-04-10T16:26:19.828Z,9.68
2023-04-10T16:29:06.900Z,11.13
2023-04-10T16:31:54.036Z,11.68
2023-04-10T16:34:41.156Z,10.13
2023-04-10T16:37:28.385Z,12.05
2023-04-10T16:40:16.236Z,11.55
2023-04-10T16:43:05.266Z,10.88
2023-04-10T16:45:56.343Z,10.60
2023-04-10T16:48:43.496Z,9.65
2023-04-10T16:51:31.231Z,9.43
2023-04-10T16:54:18.431Z,11.13
2023-04-10T16:57:05.579Z,10.13
2023-04-10T16:59:58.175Z,12.32
2023-04-10T17:02:45.568Z,10.73
2023-04-10T17:05:35.671Z,9.52
2023-04-10T17:08:22.767Z,8.57
2023-04-10T17:11:09.902Z,9.70
2023-04-10T17:13:57.057Z,9.77
2023-04-10T17:16:44.273Z,9.32
2023-04-10T17:19:32.113Z,9.27
2023-04-10T17:22:20.762Z,12.20
2023-04-10T17:25:08.766Z,10.90
2023-04-10T17:27:57.289Z,11.63
2023-04-10T17:30:44.518Z,9.77
2023-04-10T17:33:31.600Z,8.82
2023-04-10T17:36:18.725Z,8.57
2023-04-10T17:39:06.110Z,9.57
2023-04-10T17:41:53.696Z,9.40
2023-04-10T17:44:41.199Z,8.70
2023-04-10T17:47:28.312Z,9.85
2023-04-10T17:50:15.720Z,9.55
2023-04-10T17:53:02.858Z,10.63
2023-04-10T17:55:50.220Z,9.57
2023-04-10T17:58:38.713Z,9.05
2023-04-10T18:01:30.093Z,9.82
2023-04-10T18:04:17.459Z,12.27
2023-04-10T18:07:04.745Z,10.52
2023-04-10T18:09:51.945Z,11.02
2023-04-10T18:12:40.858Z,11.10
2023-04-10T18:15:28.368Z,11.55
2023-04-10T18:18:15.580Z,11.43
2023-04-10T18:21:03.992Z,10.30
2023-04-10T18:23:51.701Z,9.35
2023-04-10T18:26:38.790Z,11.98
2023-04-10T18:29:27.477Z,9.68
2023-04-10T18:32:14.626Z,9.35
2023-04-10T18:35:03.925Z,9.45
2023-04-10T18:37:51.050Z,10.73
2023-04-10T18:40:38.488Z,10.63
2023-04-10T18:43:27.887Z,11.52
2023-04-10T18:46:15.696Z,11.52
2023-04-10T18:49:03.667Z,10.77
2023-04-10T18:51:51.021Z,9.82
2023-04-10T18:54:40.948Z,10.77
2023-04-10T18:57:28.243Z,13.50
2023-04-10T19:00:15.619Z,14.40
2023-04-10T19:03:03.841Z,12.65
2023-04-10T19:05:51.511Z,11.75
2023-04-10T19:08:39.362Z,14.38
2023-04-10T19:11:26.766Z,14.43
2023-04-10T19:14:13.939Z,14.15
2023-04-10T19:17:06.160Z,11.95
2023-04-10T19:19:54.283Z,14.15
2023-04-10T19:22:41.584Z,14.43
2023-04-10T19:25:29.671Z,15.40
2023-04-10T19:28:17.148Z,12.18
2023-04-10T19:31:04.991Z,12.38
2023-04-10T19:33:52.193Z,14.23
2023-04-10T19:36:42.456Z,12.60
2023-04-10T19:39:29.655Z,12.90
2023-04-10T19:42:16.749Z,13.13
2023-04-10T19:45:04.054Z,12.10
2023-04-10T19:47:51.237Z,11.50
2023-04-10T19:50:39.599Z,14.10
2023-04-10T19:53:26.832Z,15.20
2023-04-10T19:56:16.553Z,14.07
2023-04-10T19:59:04.030Z,16.48
2023-04-10T20:01:51.281Z,16.73
2023-04-10T20:04:38.809Z,18.48
2023-04-10T20:07:26.062Z,17.35
2023-04-10T20:10:13.572Z,18.38
2023-04-10T20:13:02.721Z,17.42
2023-04-10T20:15:50.048Z,15.90
2023-04-10T20:18:38.830Z,14.23
2023-04-10T20:21:27.260Z,16.38
2023-04-10T20:24:14.356Z,18.25
2023-04-10T20:27:02.502Z,18.23
2023-04-10T20:29:50.318Z,16.15
2023-04-10T20:32:37.813Z,14.30
2023-04-10T20:37:53.571Z,16.98
2023-04-10T20:40:40.659Z,14.82
2023-04-10T20:43:27.757Z,18.13
2023-04-10T20:46:15.199Z,15.93
2023-04-10T20:49:03.610Z,15.95
2023-04-10T20:51:51.002Z,15.23
2023-04-10T20:54:38.047Z,16.20
2023-04-10T20:57:25.105Z,16.90
2023-04-10T21:00:13.190Z,19.80
2023-04-10T21:03:00.451Z,19.90
2023-04-10T21:05:47.687Z,18.02
2023-04-10T21:08:35.762Z,19.50
2023-04-10T21:11:22.972Z,29.17
2023-04-10T21:14:10.074Z,17.65
2023-04-10T21:16:57.205Z,18.33
2023-04-10T21:19:44.844Z,21.80
2023-04-10T21:22:31.968Z,19.20
2023-04-10T21:25:19.015Z,17.48
2023-04-10T21:28:06.170Z,20.50
2023-04-10T21:30:53.328Z,20.83
2023-04-10T21:33:40.623Z,23.35
2023-04-10T21:36:27.766Z,22.40
2023-04-10T21:39:14.786Z,22.23
2023-04-10T21:42:01.795Z,20.90
2023-04-10T21:44:48.896Z,23.42
2023-04-10T21:47:36.023Z,25.15
2023-04-10T21:50:24.917Z,20.92
2023-04-10T21:53:12.045Z,21.58
2023-04-10T21:55:59.200Z,27.45
2023-04-10T21:58:46.241Z,30.45
2023-04-10T22:01:34.161Z,26.77
2023-04-10T22:04:21.326Z,23.27
2023-04-10T22:07:08.465Z,31.52
2023-04-10T22:09:55.578Z,25.05
2023-04-10T22:12:42.630Z,27.85
2023-04-10T22:15:29.692Z,30.40
2023-04-10T22:18:18.666Z,25.30
2023-04-10T22:21:05.832Z,26.63
2023-04-10T22:23:53.153Z,28.30
2023-04-10T22:26:42.235Z,22.65
2023-04-10T22:29:29.344Z,23.88
2023-04-10T22:32:16.447Z,25.20
2023-04-10T22:35:03.786Z,27.08
2023-04-10T22:37:50.980Z,24.65
2023-04-10T22:40:38.026Z,26.90
2023-04-10T22:43:25.141Z,26.40
2023-04-10T22:46:12.232Z,30.02
2023-04-10T22:48:59.347Z,26.33
2023-04-10T22:51:46.485Z,29.77
2023-04-10T22:54:33.643Z,25.20
2023-04-10T22:57:20.998Z,27.38
2023-04-10T23:03:33.751Z,23.17
2023-04-10T23:06:20.909Z,22.58
2023-04-10T23:09:08.153Z,23.83
2023-04-10T23:11:55.221Z,21.60
2023-04-10T23:14:42.310Z,23.85
2023-04-10T23:17:29.409Z,22.92
2023-04-10T23:20:16.686Z,20.17
2023-04-10T23:23:04.041Z,21.45
2023-04-10T23:25:57.979Z,21.10
2023-04-10T23:28:45.062Z,19.83
2023-04-10T23:31:32.211Z,19.90
2023-04-10T23:34:20.943Z,22.35
2023-04-10T23:37:08.358Z,27.35
2023-04-10T23:39:55.366Z,25.45
2023-04-10T23:42:42.477Z,23.75
2023-04-10T23:45:29.593Z,22.17
2023-04-10T23:48:16.709Z,24.85
2023-04-10T23:51:05.411Z,22.55
2023-04-10T23:53:52.623Z,20.67
2023-04-10T23:56:39.672Z,21.73
2023-04-10T23:59:26.841Z,24.52
